Etusivu
METAR-TAF:

METAR-TAF

Lentoasemat :

Pecos, Texas, Yhdysvallat

Leveyspiiri: 31-22-56N, Pituuspiiri: 103-30-38W, korkeus merenpinnasta: 796 m

Tämänhetkinen sää

Tämä raportti tehtiin 30 minuuttia sitten, kello 22.55 UTC
Tuuli 9 kn kaakosta puuskistuen 14 kn:hen
Lämpötila 36°C
Kosteus 25%
Ilmanpaine 1015 hPa
Näkyvyys: 16.1 km
selkeää

METAR: KPEQ 222255Z AUTO 13009G14KT 10SM CLR 36/13 A2997 RMK AO2 T03560128

Aika: 18:25 (23:25 UTC)

Sääennuste

Tämä raportti tehtiin 6 tuntia ja 5 minuuttia sitten, kello 17.20 UTC
Ennuste voimassa 22. päivästä klo 18 UTC - 23. päivään klo 18 UTC
Tuuli 11 kn kaakosta
Näkyvyys: 10 km
Muutamia pilviä 25000 ft:n korkeudessa
From 22. päivästä klo 2000 UTC
Tuuli 14 kn idästä/kaakosta puuskistuen 22 kn:hen
Näkyvyys: 10 km
selkeää
From 23. päivästä klo 0400 UTC
Tuuli 10 kn idästä
Näkyvyys: 10 km
selkeää

TAF: KPEQ 221720Z 2218/2318 13011KT P6SM FEW250 FM222000 11014G22KT P6SM SKC FM230400 10010KT P6SM SKC

Säähavainnot ja -ennusteet yli 4000 lentoasemalta (METAR- ja TAF-raportit).

Käytössä olevat sääasemat on merkitty karttaan keltaisilla ja punaisilla pisteillä.

Aseta hiiri pisteen päälle nähdäksesi sääaseman nimen.

Klikkaa sitten nähdäksesi säähavainnot ja -ennusteet.

Kartan vaihtaminen: klikkaa mustalla rastilla varustettuja vihreitä pisteitä, niin voit zoomata sisään; viivalla varustettua vihreää pistettä, niin voit zoomata ulos tai vihreitä nuolia, niin pääset viereisille kartoille.


METAR-TAF: